createdAt,value
2023-04-19T00:02:03.234Z,5.40
2023-04-19T00:04:30.296Z,5.70
2023-04-19T00:06:58.671Z,5.03
2023-04-19T00:09:25.865Z,5.20
2023-04-19T00:11:53.203Z,6.53
2023-04-19T00:14:20.223Z,5.67
2023-04-19T00:16:47.071Z,5.90
2023-04-19T00:19:14.340Z,5.50
2023-04-19T00:21:41.448Z,5.97
2023-04-19T00:24:08.274Z,5.80
2023-04-19T00:26:35.324Z,5.17
2023-04-19T00:29:02.604Z,5.90
2023-04-19T00:31:29.508Z,4.87
2023-04-19T00:33:57.557Z,5.63
2023-04-19T00:36:27.246Z,5.43
2023-04-19T00:38:54.006Z,5.43
2023-04-19T00:41:21.398Z,5.60
2023-04-19T00:43:48.118Z,5.60
2023-04-19T00:46:15.933Z,5.70
2023-04-19T00:48:42.815Z,5.20
2023-04-19T00:51:12.573Z,5.53
2023-04-19T00:53:41.299Z,7.17
2023-04-19T00:56:09.753Z,6.03
2023-04-19T00:58:38.655Z,6.57
2023-04-19T01:01:06.372Z,7.00
2023-04-19T01:03:35.092Z,7.20
2023-04-19T01:06:02.526Z,7.53
2023-04-19T01:08:29.278Z,7.03
2023-04-19T01:10:56.102Z,6.90
2023-04-19T01:13:22.947Z,6.93
2023-04-19T01:15:51.481Z,6.30
2023-04-19T01:18:20.726Z,6.47
2023-04-19T01:20:48.492Z,6.00
2023-04-19T01:23:15.475Z,6.60
2023-04-19T01:25:42.349Z,6.90
2023-04-19T01:28:09.108Z,5.93
2023-04-19T01:30:37.188Z,6.33
2023-04-19T01:33:04.086Z,6.40
2023-04-19T01:35:30.861Z,7.13
2023-04-19T01:37:58.268Z,6.40
2023-04-19T01:40:26.116Z,7.20
2023-04-19T01:42:53.605Z,6.93
2023-04-19T01:45:20.626Z,7.10
2023-04-19T01:47:51.181Z,6.67
2023-04-19T01:50:18.217Z,7.07
2023-04-19T01:52:45.106Z,7.23
2023-04-19T01:55:11.866Z,7.03
2023-04-19T01:57:39.148Z,6.07
2023-04-19T02:00:06.667Z,7.20
2023-04-19T02:02:42.002Z,6.90
2023-04-19T02:05:09.343Z,7.30
2023-04-19T02:07:36.109Z,8.20
2023-04-19T02:10:03.546Z,7.20
2023-04-19T02:12:31.092Z,7.27
2023-04-19T02:14:59.500Z,6.97
2023-04-19T02:17:34.566Z,7.63
2023-04-19T02:20:01.512Z,7.57
2023-04-19T02:22:28.246Z,7.00
2023-04-19T02:24:55.014Z,7.47
2023-04-19T02:27:29.601Z,6.80
2023-04-19T02:29:56.642Z,7.40
2023-04-19T02:32:24.521Z,6.60
2023-04-19T02:34:51.962Z,7.60
2023-04-19T02:37:18.799Z,7.20
2023-04-19T02:39:46.251Z,6.60
2023-04-19T02:42:13.183Z,6.80
2023-04-19T02:44:40.002Z,7.03
2023-04-19T02:47:07.086Z,7.13
2023-04-19T02:49:36.661Z,8.40
2023-04-19T02:52:04.151Z,8.33
2023-04-19T02:54:33.325Z,6.93
2023-04-19T02:57:00.970Z,7.83
2023-04-19T02:59:27.916Z,8.00
2023-04-19T03:01:56.362Z,8.10
2023-04-19T03:04:24.576Z,8.40
2023-04-19T03:06:53.069Z,9.20
2023-04-19T03:09:20.343Z,8.30
2023-04-19T03:11:47.070Z,8.63
2023-04-19T03:14:13.978Z,8.10
2023-04-19T03:16:40.987Z,9.37
2023-04-19T03:19:08.250Z,9.30
2023-04-19T03:21:40.284Z,10.77
2023-04-19T03:24:07.225Z,8.47
2023-04-19T03:26:37.125Z,7.93
2023-04-19T03:29:04.349Z,9.37
2023-04-19T03:31:33.972Z,8.07
2023-04-19T03:34:00.733Z,8.30
2023-04-19T03:36:33.911Z,7.50
2023-04-19T03:39:00.741Z,8.17
2023-04-19T03:41:28.106Z,7.90
2023-04-19T03:44:18.427Z,8.57
2023-04-19T03:46:46.598Z,7.83
2023-04-19T03:49:15.870Z,8.33
2023-04-19T03:51:45.848Z,8.43
2023-04-19T03:54:12.678Z,8.20
2023-04-19T03:56:39.886Z,8.13
2023-04-19T03:59:06.888Z,9.53
2023-04-19T04:01:41.865Z,9.50
2023-04-19T04:04:09.568Z,8.83
2023-04-19T04:06:36.584Z,8.17
2023-04-19T04:09:04.238Z,8.10
2023-04-19T04:11:31.384Z,8.07
2023-04-19T04:13:58.598Z,7.60
2023-04-19T04:16:31.559Z,7.13
2023-04-19T04:18:58.959Z,7.57
2023-04-19T04:21:28.224Z,7.60
2023-04-19T04:23:58.643Z,7.50
2023-04-19T04:26:35.249Z,7.77
2023-04-19T04:29:20.941Z,8.97
2023-04-19T04:31:49.871Z,7.53
2023-04-19T04:34:20.503Z,7.70
2023-04-19T04:36:53.253Z,8.23
2023-04-19T04:39:23.489Z,7.30
2023-04-19T04:41:51.906Z,8.77
2023-04-19T04:44:20.335Z,8.43
2023-04-19T04:46:47.098Z,9.00
2023-04-19T04:49:19.374Z,8.10
2023-04-19T04:51:46.130Z,9.90
2023-04-19T04:54:13.652Z,8.27
2023-04-19T04:56:41.309Z,8.43
2023-04-19T04:59:08.429Z,9.00
2023-04-19T05:01:39.513Z,8.60
2023-04-19T05:04:06.680Z,8.33
2023-04-19T05:06:33.506Z,8.23
2023-04-19T05:09:00.305Z,8.67
2023-04-19T05:11:34.905Z,7.67
2023-04-19T05:14:02.761Z,9.10
2023-04-19T05:16:29.809Z,9.50
2023-04-19T05:18:57.687Z,8.87
2023-04-19T05:21:26.814Z,9.40
2023-04-19T05:23:54.238Z,9.10
2023-04-19T05:26:21.619Z,9.27
2023-04-19T05:28:50.185Z,9.43
2023-04-19T05:31:26.390Z,9.20
2023-04-19T05:34:08.432Z,9.20
2023-04-19T05:36:35.510Z,9.30
2023-04-19T05:39:02.250Z,9.53
2023-04-19T05:41:29.019Z,8.87
2023-04-19T05:43:55.892Z,9.70
2023-04-19T05:46:23.069Z,8.10
2023-04-19T05:48:50.909Z,9.67
2023-04-19T05:51:44.321Z,8.10
2023-04-19T05:54:46.348Z,9.47
2023-04-19T05:57:13.740Z,9.57
2023-04-19T05:59:40.566Z,9.10
2023-04-19T06:02:08.044Z,8.90
2023-04-19T06:04:35.167Z,9.10
2023-04-19T06:07:04.538Z,9.13
2023-04-19T06:09:32.994Z,10.13
2023-04-19T06:12:00.509Z,10.33
2023-04-19T06:14:29.337Z,10.27
2023-04-19T06:16:57.281Z,11.17
2023-04-19T06:19:24.185Z,10.07
2023-04-19T06:21:51.483Z,10.63
2023-04-19T06:24:18.227Z,9.90
2023-04-19T06:26:45.168Z,11.20
2023-04-19T06:29:11.942Z,10.70
2023-04-19T06:31:38.757Z,10.47
2023-04-19T06:34:05.536Z,11.60
2023-04-19T06:36:32.921Z,12.30
2023-04-19T06:38:59.657Z,11.30
2023-04-19T06:41:26.809Z,11.50
2023-04-19T06:43:53.531Z,10.70
2023-04-19T06:46:20.368Z,10.50
2023-04-19T06:48:47.220Z,10.30
2023-04-19T06:51:14.021Z,10.93
2023-04-19T06:53:40.815Z,11.87
2023-04-19T06:56:07.907Z,11.00
2023-04-19T06:58:35.350Z,8.90
2023-04-19T07:01:05.026Z,9.30
2023-04-19T07:03:32.429Z,9.87
2023-04-19T07:05:59.601Z,9.40
2023-04-19T07:08:34.904Z,7.27
2023-04-19T07:11:05.952Z,7.87
2023-04-19T07:13:32.677Z,8.13
2023-04-19T07:15:59.624Z,7.67
2023-04-19T07:18:26.331Z,8.20
2023-04-19T07:20:53.238Z,9.10
2023-04-19T07:23:19.986Z,8.27
2023-04-19T07:25:46.793Z,8.43
2023-04-19T07:28:13.930Z,8.50
2023-04-19T07:30:41.077Z,10.60
2023-04-19T07:33:08.550Z,7.73
2023-04-19T07:35:35.910Z,8.97
2023-04-19T07:38:02.936Z,8.77
2023-04-19T07:40:29.709Z,8.20
2023-04-19T07:42:56.708Z,9.23
2023-04-19T07:45:23.865Z,7.77
2023-04-19T07:47:50.842Z,7.77
2023-04-19T07:50:17.919Z,7.30
2023-04-19T07:52:44.809Z,8.33
2023-04-19T07:55:11.714Z,7.17
2023-04-19T07:57:38.934Z,6.80
2023-04-19T08:00:06.230Z,7.03
2023-04-19T08:02:48.235Z,7.70
2023-04-19T08:05:20.203Z,6.20
2023-04-19T08:07:47.453Z,6.57
2023-04-19T08:10:14.670Z,6.60
2023-04-19T08:12:53.460Z,6.83
2023-04-19T08:16:12.976Z,6.20
2023-04-19T08:18:16.104Z,6.83
2023-04-19T08:20:43.098Z,6.47
2023-04-19T08:23:21.530Z,5.90
2023-04-19T08:25:51.187Z,5.50
2023-04-19T08:28:19.259Z,6.20
2023-04-19T08:30:46.365Z,6.20
2023-04-19T08:33:13.193Z,5.40
2023-04-19T08:35:42.692Z,5.93
2023-04-19T08:38:09.971Z,5.40
2023-04-19T08:40:51.925Z,6.23
2023-04-19T08:43:19.769Z,5.10
2023-04-19T08:45:50.740Z,5.30
2023-04-19T08:48:18.288Z,5.10
2023-04-19T08:51:03.536Z,5.83
2023-04-19T08:53:33.200Z,6.23
2023-04-19T08:56:10.576Z,5.60
2023-04-19T08:58:57.716Z,5.40
2023-04-19T09:01:36.016Z,5.20
2023-04-19T09:04:26.273Z,5.37
2023-04-19T09:06:55.419Z,5.30
2023-04-19T09:09:36.661Z,4.93
2023-04-19T09:12:17.644Z,5.10
2023-04-19T09:14:57.898Z,4.43
2023-04-19T09:17:28.403Z,5.00
2023-04-19T09:19:55.559Z,5.23
2023-04-19T09:22:22.703Z,5.43
2023-04-19T09:27:30.232Z,5.33
2023-04-19T09:29:58.902Z,5.17
2023-04-19T09:32:26.778Z,5.00
2023-04-19T09:34:58.497Z,6.07
2023-04-19T09:37:51.579Z,5.20
2023-04-19T09:40:24.841Z,4.50
2023-04-19T09:45:29.676Z,4.83
2023-04-19T09:48:05.135Z,4.87
2023-04-19T09:50:33.991Z,5.10
2023-04-19T09:53:06.626Z,5.20
2023-04-19T09:55:48.608Z,4.47
2023-04-19T09:58:23.854Z,4.80
2023-04-19T10:00:57.249Z,4.33
2023-04-19T10:03:31.352Z,4.00
2023-04-19T10:06:00.456Z,3.37
2023-04-19T10:08:33.771Z,4.30
2023-04-19T10:11:01.497Z,4.33
2023-04-19T10:13:29.076Z,4.90
2023-04-19T10:16:04.562Z,5.20
2023-04-19T10:18:38.867Z,4.57
2023-04-19T10:21:08.304Z,5.20
2023-04-19T10:23:36.838Z,4.90
2023-04-19T10:26:03.702Z,4.23
2023-04-19T10:28:34.224Z,4.47
2023-04-19T10:31:02.890Z,4.03
2023-04-19T10:33:34.665Z,5.20
2023-04-19T10:36:02.292Z,4.40
2023-04-19T10:38:48.896Z,4.90
2023-04-19T10:41:18.501Z,4.30
2023-04-19T10:43:47.950Z,4.20
2023-04-19T10:46:20.302Z,4.97
2023-04-19T10:48:53.432Z,6.20
2023-04-19T10:51:51.312Z,5.87
2023-04-19T10:54:27.324Z,5.37
2023-04-19T10:57:02.517Z,4.97
2023-04-19T10:59:31.266Z,4.40
2023-04-19T11:02:01.126Z,4.87
2023-04-19T11:04:31.306Z,5.90
2023-04-19T11:07:05.992Z,6.67
2023-04-19T11:09:42.306Z,5.40
2023-04-19T11:12:12.296Z,6.47
2023-04-19T11:14:46.971Z,4.73
2023-04-19T11:17:20.907Z,5.30
2023-04-19T11:19:56.376Z,4.80
2023-04-19T11:22:45.327Z,4.60
2023-04-19T11:25:18.991Z,4.57
2023-04-19T11:27:48.833Z,4.10
2023-04-19T11:30:19.642Z,4.60
2023-04-19T11:32:48.338Z,3.80
2023-04-19T11:35:18.228Z,4.70
2023-04-19T11:37:45.878Z,5.10
2023-04-19T11:40:17.102Z,4.43
2023-04-19T11:42:44.802Z,4.40
2023-04-19T11:45:26.027Z,4.57
2023-04-19T11:47:56.256Z,4.60
2023-04-19T11:50:43.353Z,4.00
2023-04-19T11:53:11.006Z,3.80
2023-04-19T11:55:37.911Z,3.90
2023-04-19T11:58:09.738Z,3.40
2023-04-19T12:00:36.785Z,3.07
2023-04-19T12:03:04.824Z,3.30
2023-04-19T12:05:32.106Z,3.73
2023-04-19T12:08:16.984Z,3.27
2023-04-19T12:10:57.164Z,2.80
2023-04-19T12:13:25.578Z,2.43
2023-04-19T12:15:52.865Z,2.33
2023-04-19T12:18:19.807Z,2.13
2023-04-19T12:20:48.789Z,2.20
2023-04-19T12:23:17.297Z,2.20
2023-04-19T12:25:46.732Z,1.70
2023-04-19T12:28:14.721Z,1.63
2023-04-19T12:30:42.131Z,2.20
2023-04-19T12:33:09.830Z,1.60
2023-04-19T12:35:37.463Z,1.50
2023-04-19T12:38:04.465Z,1.60
2023-04-19T12:40:31.451Z,1.30
2023-04-19T12:42:58.205Z,1.63
2023-04-19T12:45:25.988Z,1.43
2023-04-19T12:47:52.884Z,1.53
2023-04-19T12:50:19.730Z,1.40
2023-04-19T12:52:46.826Z,1.53
2023-04-19T12:55:13.649Z,1.50
2023-04-19T12:57:40.509Z,1.80
2023-04-19T13:00:09.994Z,1.70
2023-04-19T13:02:37.080Z,1.60
2023-04-19T13:05:05.596Z,1.90
2023-04-19T13:07:32.448Z,1.37
2023-04-19T13:09:59.483Z,1.90
2023-04-19T13:12:26.274Z,1.57
2023-04-19T13:14:53.062Z,1.30
2023-04-19T13:17:20.658Z,1.10
2023-04-19T13:19:47.822Z,1.20
2023-04-19T13:22:15.445Z,1.17
2023-04-19T13:24:42.279Z,1.27
2023-04-19T13:27:09.464Z,1.10
2023-04-19T13:29:36.815Z,1.47
2023-04-19T13:32:07.488Z,1.60
2023-04-19T13:34:35.004Z,1.40
2023-04-19T13:37:02.055Z,1.60
2023-04-19T13:39:28.883Z,1.37
2023-04-19T13:41:55.689Z,1.50
2023-04-19T13:44:22.815Z,1.20
2023-04-19T13:46:49.653Z,1.40
2023-04-19T13:49:17.058Z,1.47
2023-04-19T13:51:50.264Z,1.37
2023-04-19T13:54:19.323Z,1.30
2023-04-19T13:56:48.104Z,1.50
2023-04-19T13:59:16.093Z,1.50
2023-04-19T14:01:42.803Z,1.10
2023-04-19T14:04:09.812Z,1.13
2023-04-19T14:06:36.880Z,1.43
2023-04-19T14:09:03.652Z,1.40
2023-04-19T14:11:30.649Z,0.90
2023-04-19T14:13:57.805Z,1.23
2023-04-19T14:16:25.485Z,1.40
2023-04-19T14:18:52.819Z,1.10
2023-04-19T14:21:20.088Z,1.30
2023-04-19T14:23:46.974Z,1.50
2023-04-19T14:26:14.546Z,1.20
2023-04-19T14:28:41.272Z,1.63
2023-04-19T14:31:08.162Z,1.27
2023-04-19T14:33:34.925Z,1.20
2023-04-19T14:36:01.854Z,1.37
2023-04-19T14:38:28.646Z,1.67
2023-04-19T14:40:56.319Z,1.40
2023-04-19T14:43:23.125Z,1.30
2023-04-19T14:45:50.184Z,1.10
2023-04-19T14:48:16.988Z,2.53
2023-04-19T14:50:43.759Z,1.63
2023-04-19T14:53:10.501Z,1.30
2023-04-19T14:55:38.377Z,1.70
2023-04-19T14:58:05.796Z,1.50
2023-04-19T15:00:33.405Z,1.53
2023-04-19T15:03:01.329Z,1.60
2023-04-19T15:05:28.591Z,1.47
2023-04-19T15:07:55.919Z,1.40
2023-04-19T15:10:22.688Z,1.73
2023-04-19T15:12:49.461Z,1.93
2023-04-19T15:15:16.465Z,1.70
2023-04-19T15:17:43.494Z,1.50
2023-04-19T15:20:10.477Z,1.57
2023-04-19T15:22:37.313Z,1.60
2023-04-19T15:25:04.388Z,2.13
2023-04-19T15:27:31.427Z,1.70
2023-04-19T15:29:58.431Z,1.73
2023-04-19T15:32:25.277Z,2.13
2023-04-19T15:34:52.244Z,1.50
2023-04-19T15:37:19.229Z,2.20
2023-04-19T15:39:46.180Z,1.87
2023-04-19T15:42:13.202Z,1.60
2023-04-19T15:44:41.517Z,2.00
2023-04-19T15:47:09.501Z,2.67
2023-04-19T15:49:36.648Z,2.77
2023-04-19T15:52:03.816Z,2.70
2023-04-19T15:54:30.790Z,2.37
2023-04-19T15:56:57.525Z,2.23
2023-04-19T15:59:24.279Z,2.10
2023-04-19T16:01:51.119Z,1.90
2023-04-19T16:04:18.135Z,2.37
2023-04-19T16:06:45.017Z,1.60
2023-04-19T16:09:11.965Z,2.17
2023-04-19T16:11:39.269Z,2.30
2023-04-19T16:14:06.098Z,2.07
2023-04-19T16:16:35.255Z,2.50
2023-04-19T16:19:02.353Z,2.63
2023-04-19T16:21:29.090Z,2.03
2023-04-19T16:23:56.251Z,3.63
2023-04-19T16:26:23.087Z,3.97
2023-04-19T16:28:49.863Z,4.20
2023-04-19T16:31:16.749Z,2.60
2023-04-19T16:33:43.698Z,2.50
2023-04-19T16:36:10.698Z,2.03
2023-04-19T16:38:37.364Z,2.07
2023-04-19T16:41:05.856Z,2.00
2023-04-19T16:43:33.141Z,2.00
2023-04-19T16:46:00.044Z,2.20
2023-04-19T16:48:27.012Z,2.50
2023-04-19T16:50:53.896Z,2.30
2023-04-19T16:53:20.965Z,2.70
2023-04-19T16:55:47.848Z,2.50
2023-04-19T16:58:14.718Z,2.63
2023-04-19T17:00:41.534Z,2.20
2023-04-19T17:03:09.440Z,2.63
2023-04-19T17:05:36.422Z,2.17
2023-04-19T17:08:03.314Z,2.23
2023-04-19T17:10:30.159Z,1.83
2023-04-19T17:12:56.912Z,1.93
2023-04-19T17:15:24.192Z,1.90
2023-04-19T17:17:50.948Z,2.83
2023-04-19T17:20:17.868Z,2.57
2023-04-19T17:22:44.618Z,2.50
2023-04-19T17:25:11.392Z,2.43
2023-04-19T17:27:38.999Z,1.67
2023-04-19T17:30:07.272Z,1.83
2023-04-19T17:32:34.201Z,2.27
2023-04-19T17:35:01.116Z,1.90
2023-04-19T17:37:27.839Z,1.67
2023-04-19T17:39:54.609Z,2.17
2023-04-19T17:42:21.610Z,2.27
2023-04-19T17:44:48.629Z,1.83
2023-04-19T17:47:15.817Z,1.87
2023-04-19T17:49:45.424Z,1.83
2023-04-19T17:52:12.964Z,1.93
2023-04-19T17:54:39.655Z,1.87
2023-04-19T17:57:06.754Z,1.57
2023-04-19T17:59:33.528Z,2.20
2023-04-19T18:02:00.695Z,2.00
2023-04-19T18:04:27.745Z,2.10
2023-04-19T18:06:54.575Z,2.30
2023-04-19T18:09:21.292Z,1.97
2023-04-19T18:11:48.180Z,2.10
2023-04-19T18:14:15.359Z,2.13
2023-04-19T18:16:42.259Z,2.30
2023-04-19T18:19:09.408Z,2.10
2023-04-19T18:21:36.914Z,2.90
2023-04-19T18:24:03.820Z,2.50
2023-04-19T18:26:38.846Z,2.47
2023-04-19T18:29:05.722Z,3.40
2023-04-19T18:31:32.693Z,3.00
2023-04-19T18:34:01.297Z,3.47
2023-04-19T18:36:29.056Z,3.67
2023-04-19T18:38:56.450Z,2.40
2023-04-19T18:41:23.845Z,3.50
2023-04-19T18:44:18.430Z,3.40
2023-04-19T18:46:37.246Z,3.40
2023-04-19T18:49:04.300Z,3.73
2023-04-19T18:51:31.272Z,2.80
2023-04-19T18:53:58.366Z,3.30
2023-04-19T18:56:48.612Z,3.00
2023-04-19T18:59:12.663Z,2.50
2023-04-19T19:01:40.159Z,2.93
2023-04-19T19:04:31.765Z,2.73
2023-04-19T19:06:54.583Z,2.67
2023-04-19T19:09:22.853Z,2.57
2023-04-19T19:11:56.510Z,2.90
2023-04-19T19:14:24.177Z,3.03
2023-04-19T19:16:52.771Z,2.60
2023-04-19T19:19:22.275Z,2.80
2023-04-19T19:21:49.331Z,3.00
2023-04-19T19:24:16.282Z,3.20
2023-04-19T19:26:43.220Z,4.60
2023-04-19T19:29:15.028Z,3.00
2023-04-19T19:31:42.899Z,3.17
2023-04-19T19:34:25.322Z,3.30
2023-04-19T19:36:55.787Z,3.47
2023-04-19T19:39:22.907Z,3.30
2023-04-19T19:42:05.373Z,3.70
2023-04-19T19:44:33.235Z,3.73
2023-04-19T19:46:59.971Z,3.50
2023-04-19T19:49:27.474Z,3.10
2023-04-19T19:51:58.476Z,3.67
2023-04-19T19:54:26.378Z,3.50
2023-04-19T19:57:34.596Z,3.90
2023-04-19T19:59:40.245Z,4.73
2023-04-19T20:02:07.585Z,3.67
2023-04-19T20:04:38.697Z,2.90
2023-04-19T20:09:36.102Z,3.20
2023-04-19T20:12:03.005Z,3.10
2023-04-19T20:14:29.923Z,3.53
2023-04-19T20:16:56.774Z,3.10
2023-04-19T20:19:24.525Z,3.00
2023-04-19T20:21:51.338Z,2.90
2023-04-19T20:24:18.082Z,2.60
2023-04-19T20:26:44.840Z,3.00
2023-04-19T20:29:11.646Z,4.10
2023-04-19T20:31:38.382Z,2.90
2023-04-19T20:34:05.774Z,2.97
2023-04-19T20:36:33.036Z,7.80
2023-04-19T20:39:01.804Z,5.70
2023-04-19T20:41:28.545Z,3.00
2023-04-19T20:43:57.541Z,3.40
2023-04-19T20:46:24.377Z,3.13
2023-04-19T20:48:51.177Z,3.47
2023-04-19T20:51:17.930Z,2.90
2023-04-19T20:53:44.747Z,3.23
2023-04-19T20:56:11.453Z,3.43
2023-04-19T20:58:39.683Z,3.37
2023-04-19T21:01:06.421Z,4.20
2023-04-19T21:03:33.657Z,11.63
2023-04-19T21:06:00.649Z,2.50
2023-04-19T21:08:27.735Z,3.00
2023-04-19T21:10:54.520Z,3.30
2023-04-19T21:13:21.260Z,3.10
2023-04-19T21:15:48.159Z,3.50
2023-04-19T21:18:15.266Z,3.13
2023-04-19T21:20:42.073Z,3.13
2023-04-19T21:23:08.983Z,3.50
2023-04-19T21:25:35.680Z,3.57
2023-04-19T21:28:02.413Z,3.00
2023-04-19T21:30:29.767Z,3.00
2023-04-19T21:32:56.535Z,2.73
2023-04-19T21:35:23.553Z,2.93
2023-04-19T21:37:52.106Z,3.50
2023-04-19T21:40:18.874Z,3.60
2023-04-19T21:42:47.420Z,3.97
2023-04-19T21:45:14.183Z,3.47
2023-04-19T21:47:41.045Z,3.17
2023-04-19T21:50:08.504Z,3.70
2023-04-19T21:52:35.378Z,3.20
2023-04-19T21:55:02.234Z,3.20
2023-04-19T21:57:30.826Z,3.47
2023-04-19T21:59:57.648Z,4.00
2023-04-19T22:02:24.542Z,3.70
2023-04-19T22:04:52.697Z,4.27
2023-04-19T22:07:19.485Z,3.70
2023-04-19T22:09:46.461Z,4.07
2023-04-19T22:12:13.628Z,3.73
2023-04-19T22:14:40.791Z,3.77
2023-04-19T22:17:08.944Z,3.43
2023-04-19T22:19:35.771Z,3.40
2023-04-19T22:22:02.482Z,3.50
2023-04-19T22:24:29.206Z,3.00
2023-04-19T22:26:57.672Z,3.70
2023-04-19T22:29:24.459Z,3.73
2023-04-19T22:31:51.303Z,3.30
2023-04-19T22:34:18.110Z,3.40
2023-04-19T22:36:45.246Z,3.40
2023-04-19T22:39:12.221Z,3.47
2023-04-19T22:41:38.932Z,3.70
2023-04-19T22:44:05.805Z,4.10
2023-04-19T22:46:33.146Z,3.97
2023-04-19T22:49:00.664Z,3.17
2023-04-19T22:51:27.790Z,3.17
2023-04-19T22:53:55.081Z,3.67
2023-04-19T22:56:22.053Z,3.47
2023-04-19T22:58:49.060Z,3.80
2023-04-19T23:01:16.256Z,3.00
2023-04-19T23:03:43.005Z,3.20
2023-04-19T23:06:09.786Z,3.37
2023-04-19T23:08:36.756Z,4.10
2023-04-19T23:11:03.551Z,3.70
2023-04-19T23:13:30.275Z,3.23
2023-04-19T23:15:57.066Z,3.40
2023-04-19T23:18:23.953Z,3.33
2023-04-19T23:20:50.774Z,2.80
2023-04-19T23:23:20.000Z,3.17
2023-04-19T23:25:46.871Z,3.20
2023-04-19T23:28:13.583Z,3.73
2023-04-19T23:30:40.806Z,2.87
2023-04-19T23:33:07.596Z,3.40
2023-04-19T23:35:34.419Z,3.73
2023-04-19T23:38:01.102Z,3.30
2023-04-19T23:40:27.855Z,3.60
2023-04-19T23:42:54.588Z,3.60
2023-04-19T23:45:21.474Z,3.20
2023-04-19T23:47:48.163Z,2.77
2023-04-19T23:50:14.956Z,3.57
2023-04-19T23:52:41.759Z,3.50
2023-04-19T23:55:09.236Z,3.57
2023-04-19T23:57:36.030Z,3.63
